sensor_id;sensor_type;location;lat;lon;timestamp;temperature;humidity
43651;DHT22;29247;50.944;5.382;2022-10-16T00:01:37;16.00;88.10
43651;DHT22;29247;50.944;5.382;2022-10-16T00:04:08;16.00;88.10
43651;DHT22;29247;50.944;5.382;2022-10-16T00:06:34;16.00;88.20
43651;DHT22;29247;50.944;5.382;2022-10-16T00:09:00;16.00;88.20
43651;DHT22;29247;50.944;5.382;2022-10-16T00:11:28;16.00;88.20
43651;DHT22;29247;50.944;5.382;2022-10-16T00:14:01;15.90;88.10
43651;DHT22;29247;50.944;5.382;2022-10-16T00:16:28;15.90;88.10
43651;DHT22;29247;50.944;5.382;2022-10-16T00:18:57;15.90;88.00
43651;DHT22;29247;50.944;5.382;2022-10-16T00:21:28;15.90;87.90
43651;DHT22;29247;50.944;5.382;2022-10-16T00:24:03;15.90;87.90
43651;DHT22;29247;50.944;5.382;2022-10-16T00:26:33;15.90;87.80
43651;DHT22;29247;50.944;5.382;2022-10-16T00:28:59;15.90;87.70
43651;DHT22;29247;50.944;5.382;2022-10-16T00:31:25;15.90;87.70
43651;DHT22;29247;50.944;5.382;2022-10-16T00:33:53;15.90;87.70
43651;DHT22;29247;50.944;5.382;2022-10-16T00:36:21;15.80;87.60
43651;DHT22;29247;50.944;5.382;2022-10-16T00:38:47;15.80;87.60
43651;DHT22;29247;50.944;5.382;2022-10-16T00:41:17;15.80;87.60
43651;DHT22;29247;50.944;5.382;2022-10-16T00:43:55;15.80;87.60
43651;DHT22;29247;50.944;5.382;2022-10-16T00:46:22;15.80;87.70
43651;DHT22;29247;50.944;5.382;2022-10-16T00:49:08;15.80;87.70
43651;DHT22;29247;50.944;5.382;2022-10-16T00:51:45;15.80;87.90
43651;DHT22;29247;50.944;5.382;2022-10-16T00:54:16;15.80;87.80
43651;DHT22;29247;50.944;5.382;2022-10-16T00:56:43;15.80;87.80
43651;DHT22;29247;50.944;5.382;2022-10-16T00:59:18;15.80;87.80
43651;DHT22;29247;50.944;5.382;2022-10-16T01:01:49;15.70;87.80
43651;DHT22;29247;50.944;5.382;2022-10-16T01:04:16;15.80;87.70
43651;DHT22;29247;50.944;5.382;2022-10-16T01:12:50;15.80;87.60
43651;DHT22;29247;50.944;5.382;2022-10-16T01:15:37;15.70;87.50
43651;DHT22;29247;50.944;5.382;2022-10-16T01:18:11;15.70;87.50
43651;DHT22;29247;50.944;5.382;2022-10-16T01:31:17;15.70;87.40
43651;DHT22;29247;50.944;5.382;2022-10-16T01:33:47;15.70;87.50
43651;DHT22;29247;50.944;5.382;2022-10-16T01:36:24;15.60;87.50
43651;DHT22;29247;50.944;5.382;2022-10-16T01:38:52;15.60;87.50
43651;DHT22;29247;50.944;5.382;2022-10-16T01:41:22;15.60;87.50
43651;DHT22;29247;50.944;5.382;2022-10-16T01:46:23;15.60;87.40
43651;DHT22;29247;50.944;5.382;2022-10-16T01:48:51;15.60;87.50
43651;DHT22;29247;50.944;5.382;2022-10-16T01:51:18;15.60;87.50
43651;DHT22;29247;50.944;5.382;2022-10-16T01:53:53;15.60;87.70
43651;DHT22;29247;50.944;5.382;2022-10-16T01:56:21;15.60;87.70
43651;DHT22;29247;50.944;5.382;2022-10-16T01:58:59;15.60;87.70
43651;DHT22;29247;50.944;5.382;2022-10-16T02:01:30;15.60;87.70
43651;DHT22;29247;50.944;5.382;2022-10-16T02:03:59;15.60;87.70
43651;DHT22;29247;50.944;5.382;2022-10-16T02:06:27;15.60;87.50
43651;DHT22;29247;50.944;5.382;2022-10-16T02:08:53;15.50;87.50
43651;DHT22;29247;50.944;5.382;2022-10-16T02:11:21;15.60;87.50
43651;DHT22;29247;50.944;5.382;2022-10-16T02:14:06;15.60;87.60
43651;DHT22;29247;50.944;5.382;2022-10-16T02:16:43;15.50;87.70
43651;DHT22;29247;50.944;5.382;2022-10-16T02:19:11;15.50;87.70
43651;DHT22;29247;50.944;5.382;2022-10-16T02:29:25;15.50;87.50
43651;DHT22;29247;50.944;5.382;2022-10-16T02:31:58;15.50;87.30
43651;DHT22;29247;50.944;5.382;2022-10-16T02:34:26;15.50;87.40
43651;DHT22;29247;50.944;5.382;2022-10-16T02:36:53;15.40;87.50
43651;DHT22;29247;50.944;5.382;2022-10-16T02:39:20;15.40;87.50
43651;DHT22;29247;50.944;5.382;2022-10-16T02:41:47;15.50;87.70
43651;DHT22;29247;50.944;5.382;2022-10-16T02:44:14;15.50;87.90
43651;DHT22;29247;50.944;5.382;2022-10-16T02:46:42;15.50;87.90
43651;DHT22;29247;50.944;5.382;2022-10-16T02:49:08;15.50;88.10
43651;DHT22;29247;50.944;5.382;2022-10-16T02:51:34;15.50;88.00
43651;DHT22;29247;50.944;5.382;2022-10-16T02:54:03;15.50;88.00
43651;DHT22;29247;50.944;5.382;2022-10-16T02:56:29;15.50;88.00
43651;DHT22;29247;50.944;5.382;2022-10-16T02:58:58;15.50;87.90
43651;DHT22;29247;50.944;5.382;2022-10-16T03:01:28;15.50;87.90
43651;DHT22;29247;50.944;5.382;2022-10-16T03:03:56;15.50;87.90
43651;DHT22;29247;50.944;5.382;2022-10-16T03:06:24;15.60;88.00
43651;DHT22;29247;50.944;5.382;2022-10-16T03:08:52;15.60;88.00
43651;DHT22;29247;50.944;5.382;2022-10-16T03:11:18;15.50;87.90
43651;DHT22;29247;50.944;5.382;2022-10-16T03:13:43;15.50;88.00
43651;DHT22;29247;50.944;5.382;2022-10-16T03:16:13;15.50;88.00
43651;DHT22;29247;50.944;5.382;2022-10-16T03:18:41;15.50;87.90
43651;DHT22;29247;50.944;5.382;2022-10-16T03:21:07;15.60;87.90
43651;DHT22;29247;50.944;5.382;2022-10-16T03:23:35;15.60;87.90
43651;DHT22;29247;50.944;5.382;2022-10-16T03:26:03;15.50;87.80
43651;DHT22;29247;50.944;5.382;2022-10-16T03:28:28;15.50;87.80
43651;DHT22;29247;50.944;5.382;2022-10-16T03:30:54;15.50;87.80
43651;DHT22;29247;50.944;5.382;2022-10-16T03:33:20;15.50;87.80
43651;DHT22;29247;50.944;5.382;2022-10-16T03:35:53;15.50;87.80
43651;DHT22;29247;50.944;5.382;2022-10-16T03:38:24;15.50;87.90
43651;DHT22;29247;50.944;5.382;2022-10-16T03:40:50;15.50;87.90
43651;DHT22;29247;50.944;5.382;2022-10-16T03:43:17;15.50;87.90
43651;DHT22;29247;50.944;5.382;2022-10-16T03:45:49;15.50;87.90
43651;DHT22;29247;50.944;5.382;2022-10-16T03:48:18;15.50;87.90
43651;DHT22;29247;50.944;5.382;2022-10-16T03:50:45;15.50;87.90
43651;DHT22;29247;50.944;5.382;2022-10-16T03:53:14;15.50;88.00
43651;DHT22;29247;50.944;5.382;2022-10-16T03:55:43;15.50;88.00
43651;DHT22;29247;50.944;5.382;2022-10-16T03:58:11;15.50;88.00
43651;DHT22;29247;50.944;5.382;2022-10-16T04:00:46;15.50;88.00
43651;DHT22;29247;50.944;5.382;2022-10-16T04:03:13;15.50;88.00
43651;DHT22;29247;50.944;5.382;2022-10-16T04:05:39;15.50;87.90
43651;DHT22;29247;50.944;5.382;2022-10-16T04:08:07;15.50;88.00
43651;DHT22;29247;50.944;5.382;2022-10-16T04:10:33;15.50;88.10
43651;DHT22;29247;50.944;5.382;2022-10-16T04:13:04;15.40;88.00
43651;DHT22;29247;50.944;5.382;2022-10-16T04:15:29;15.40;88.00
43651;DHT22;29247;50.944;5.382;2022-10-16T04:17:58;15.40;88.00
43651;DHT22;29247;50.944;5.382;2022-10-16T04:20:26;15.40;88.00
43651;DHT22;29247;50.944;5.382;2022-10-16T04:22:56;15.40;87.90
43651;DHT22;29247;50.944;5.382;2022-10-16T04:25:22;15.50;88.00
43651;DHT22;29247;50.944;5.382;2022-10-16T04:27:47;15.40;88.00
43651;DHT22;29247;50.944;5.382;2022-10-16T04:30:13;15.40;88.10
43651;DHT22;29247;50.944;5.382;2022-10-16T04:32:42;15.40;88.20
43651;DHT22;29247;50.944;5.382;2022-10-16T04:35:09;15.40;88.20
43651;DHT22;29247;50.944;5.382;2022-10-16T04:37:38;15.40;88.30
43651;DHT22;29247;50.944;5.382;2022-10-16T04:40:04;15.40;88.30
43651;DHT22;29247;50.944;5.382;2022-10-16T04:42:32;15.40;88.30
43651;DHT22;29247;50.944;5.382;2022-10-16T04:44:58;15.40;88.40
43651;DHT22;29247;50.944;5.382;2022-10-16T04:47:29;15.40;88.40
43651;DHT22;29247;50.944;5.382;2022-10-16T04:49:57;15.40;88.40
43651;DHT22;29247;50.944;5.382;2022-10-16T04:52:24;15.40;88.40
43651;DHT22;29247;50.944;5.382;2022-10-16T04:54:50;15.40;88.50
43651;DHT22;29247;50.944;5.382;2022-10-16T04:57:19;15.40;88.50
43651;DHT22;29247;50.944;5.382;2022-10-16T04:59:45;15.40;88.50
43651;DHT22;29247;50.944;5.382;2022-10-16T05:02:10;15.40;88.60
43651;DHT22;29247;50.944;5.382;2022-10-16T05:04:36;15.40;88.50
43651;DHT22;29247;50.944;5.382;2022-10-16T05:07:02;15.40;88.60
43651;DHT22;29247;50.944;5.382;2022-10-16T05:09:30;15.50;88.70
43651;DHT22;29247;50.944;5.382;2022-10-16T05:11:55;15.40;88.60
43651;DHT22;29247;50.944;5.382;2022-10-16T05:14:25;15.50;88.70
43651;DHT22;29247;50.944;5.382;2022-10-16T05:16:53;15.40;88.70
43651;DHT22;29247;50.944;5.382;2022-10-16T05:19:19;15.40;88.70
43651;DHT22;29247;50.944;5.382;2022-10-16T05:21:45;15.40;88.70
43651;DHT22;29247;50.944;5.382;2022-10-16T05:24:16;15.40;88.70
43651;DHT22;29247;50.944;5.382;2022-10-16T05:26:44;15.40;88.60
43651;DHT22;29247;50.944;5.382;2022-10-16T05:29:10;15.40;88.60
43651;DHT22;29247;50.944;5.382;2022-10-16T05:31:41;15.40;88.60
43651;DHT22;29247;50.944;5.382;2022-10-16T05:34:11;15.40;88.70
43651;DHT22;29247;50.944;5.382;2022-10-16T05:36:37;15.40;88.70
43651;DHT22;29247;50.944;5.382;2022-10-16T05:39:04;15.40;88.80
43651;DHT22;29247;50.944;5.382;2022-10-16T05:41:33;15.40;88.80
43651;DHT22;29247;50.944;5.382;2022-10-16T05:43:59;15.40;88.90
43651;DHT22;29247;50.944;5.382;2022-10-16T05:46:27;15.40;88.80
43651;DHT22;29247;50.944;5.382;2022-10-16T05:48:53;15.40;88.90
43651;DHT22;29247;50.944;5.382;2022-10-16T05:51:19;15.40;88.90
43651;DHT22;29247;50.944;5.382;2022-10-16T05:53:44;15.40;88.90
43651;DHT22;29247;50.944;5.382;2022-10-16T05:56:14;15.40;89.00
43651;DHT22;29247;50.944;5.382;2022-10-16T05:58:42;15.40;89.00
43651;DHT22;29247;50.944;5.382;2022-10-16T06:01:14;15.40;89.00
43651;DHT22;29247;50.944;5.382;2022-10-16T06:03:40;15.40;89.00
43651;DHT22;29247;50.944;5.382;2022-10-16T06:06:14;15.40;89.00
43651;DHT22;29247;50.944;5.382;2022-10-16T06:08:41;15.40;89.00
43651;DHT22;29247;50.944;5.382;2022-10-16T06:11:10;15.40;89.00
43651;DHT22;29247;50.944;5.382;2022-10-16T06:13:38;15.40;89.00
43651;DHT22;29247;50.944;5.382;2022-10-16T06:16:09;15.40;88.90
43651;DHT22;29247;50.944;5.382;2022-10-16T06:18:41;15.40;88.90
43651;DHT22;29247;50.944;5.382;2022-10-16T06:21:08;15.40;88.90
43651;DHT22;29247;50.944;5.382;2022-10-16T06:23:35;15.40;88.90
43651;DHT22;29247;50.944;5.382;2022-10-16T06:26:08;15.40;89.00
43651;DHT22;29247;50.944;5.382;2022-10-16T06:28:37;15.30;88.90
43651;DHT22;29247;50.944;5.382;2022-10-16T06:31:04;15.30;88.80
43651;DHT22;29247;50.944;5.382;2022-10-16T06:33:31;15.40;88.90
43651;DHT22;29247;50.944;5.382;2022-10-16T06:36:05;15.30;89.50
43651;DHT22;29247;50.944;5.382;2022-10-16T06:38:34;15.40;88.90
43651;DHT22;29247;50.944;5.382;2022-10-16T06:41:02;15.30;88.70
43651;DHT22;29247;50.944;5.382;2022-10-16T06:43:31;15.30;88.70
43651;DHT22;29247;50.944;5.382;2022-10-16T06:45:59;15.30;88.70
43651;DHT22;29247;50.944;5.382;2022-10-16T06:48:28;15.30;88.70
43651;DHT22;29247;50.944;5.382;2022-10-16T06:51:08;15.30;88.70
43651;DHT22;29247;50.944;5.382;2022-10-16T06:53:42;15.30;88.70
43651;DHT22;29247;50.944;5.382;2022-10-16T06:58:35;15.30;88.50
43651;DHT22;29247;50.944;5.382;2022-10-16T07:01:06;15.30;88.50
43651;DHT22;29247;50.944;5.382;2022-10-16T07:03:32;15.30;88.70
43651;DHT22;29247;50.944;5.382;2022-10-16T07:06:02;15.30;88.70
43651;DHT22;29247;50.944;5.382;2022-10-16T07:08:34;15.20;88.80
43651;DHT22;29247;50.944;5.382;2022-10-16T07:11:05;15.20;88.90
43651;DHT22;29247;50.944;5.382;2022-10-16T07:13:40;15.20;89.00
43651;DHT22;29247;50.944;5.382;2022-10-16T07:16:10;15.20;89.10
43651;DHT22;29247;50.944;5.382;2022-10-16T07:18:36;15.20;89.90
43651;DHT22;29247;50.944;5.382;2022-10-16T07:23:40;15.30;89.30
43651;DHT22;29247;50.944;5.382;2022-10-16T07:26:09;15.30;89.40
43651;DHT22;29247;50.944;5.382;2022-10-16T07:28:36;15.30;89.40
43651;DHT22;29247;50.944;5.382;2022-10-16T07:31:09;15.30;89.50
43651;DHT22;29247;50.944;5.382;2022-10-16T07:33:37;15.30;89.60
43651;DHT22;29247;50.944;5.382;2022-10-16T07:36:03;15.40;89.70
43651;DHT22;29247;50.944;5.382;2022-10-16T07:38:29;15.40;89.70
43651;DHT22;29247;50.944;5.382;2022-10-16T07:41:00;15.40;89.80
43651;DHT22;29247;50.944;5.382;2022-10-16T07:43:27;15.40;89.90
43651;DHT22;29247;50.944;5.382;2022-10-16T07:45:53;15.50;90.00
43651;DHT22;29247;50.944;5.382;2022-10-16T07:48:20;15.50;90.00
43651;DHT22;29247;50.944;5.382;2022-10-16T07:50:46;15.50;90.00
43651;DHT22;29247;50.944;5.382;2022-10-16T07:53:15;15.50;90.00
43651;DHT22;29247;50.944;5.382;2022-10-16T07:55:41;15.50;90.00
43651;DHT22;29247;50.944;5.382;2022-10-16T07:58:09;15.60;90.00
43651;DHT22;29247;50.944;5.382;2022-10-16T08:00:36;15.60;90.00
43651;DHT22;29247;50.944;5.382;2022-10-16T08:03:04;15.60;90.00
43651;DHT22;29247;50.944;5.382;2022-10-16T08:05:33;15.70;90.30
43651;DHT22;29247;50.944;5.382;2022-10-16T08:07:59;15.70;90.00
43651;DHT22;29247;50.944;5.382;2022-10-16T08:10:29;15.70;89.90
43651;DHT22;29247;50.944;5.382;2022-10-16T08:12:57;15.80;90.00
43651;DHT22;29247;50.944;5.382;2022-10-16T08:15:23;15.80;90.00
43651;DHT22;29247;50.944;5.382;2022-10-16T08:18:01;15.80;90.00
43651;DHT22;29247;50.944;5.382;2022-10-16T08:20:28;15.90;89.90
43651;DHT22;29247;50.944;5.382;2022-10-16T08:23:00;15.90;89.70
43651;DHT22;29247;50.944;5.382;2022-10-16T08:25:26;15.90;89.60
43651;DHT22;29247;50.944;5.382;2022-10-16T08:27:56;16.00;89.60
43651;DHT22;29247;50.944;5.382;2022-10-16T08:30:23;16.00;89.60
43651;DHT22;29247;50.944;5.382;2022-10-16T08:32:49;16.00;89.50
43651;DHT22;29247;50.944;5.382;2022-10-16T08:35:17;16.10;89.50
43651;DHT22;29247;50.944;5.382;2022-10-16T08:37:43;16.00;89.30
43651;DHT22;29247;50.944;5.382;2022-10-16T08:43:12;16.10;89.20
43651;DHT22;29247;50.944;5.382;2022-10-16T08:50:52;16.20;88.80
43651;DHT22;29247;50.944;5.382;2022-10-16T08:53:28;16.30;88.80
43651;DHT22;29247;50.944;5.382;2022-10-16T08:55:58;16.30;88.70
43651;DHT22;29247;50.944;5.382;2022-10-16T08:58:29;16.30;88.50
43651;DHT22;29247;50.944;5.382;2022-10-16T09:01:03;16.40;88.40
43651;DHT22;29247;50.944;5.382;2022-10-16T09:06:36;16.40;88.20
43651;DHT22;29247;50.944;5.382;2022-10-16T09:14:58;16.50;87.60
43651;DHT22;29247;50.944;5.382;2022-10-16T09:25:34;16.70;87.20
43651;DHT22;29247;50.944;5.382;2022-10-16T09:28:02;16.80;86.90
43651;DHT22;29247;50.944;5.382;2022-10-16T09:30:30;16.80;86.90
43651;DHT22;29247;50.944;5.382;2022-10-16T09:32:58;16.80;86.80
43651;DHT22;29247;50.944;5.382;2022-10-16T09:35:37;16.90;86.60
43651;DHT22;29247;50.944;5.382;2022-10-16T09:38:05;16.90;86.40
43651;DHT22;29247;50.944;5.382;2022-10-16T09:40:38;17.00;86.30
43651;DHT22;29247;50.944;5.382;2022-10-16T09:43:20;17.00;86.20
43651;DHT22;29247;50.944;5.382;2022-10-16T09:46:07;17.00;85.90
43651;DHT22;29247;50.944;5.382;2022-10-16T09:48:44;17.10;85.70
43651;DHT22;29247;50.944;5.382;2022-10-16T09:51:24;17.10;85.10
43651;DHT22;29247;50.944;5.382;2022-10-16T09:53:56;17.10;84.90
43651;DHT22;29247;50.944;5.382;2022-10-16T09:56:28;17.20;84.90
43651;DHT22;29247;50.944;5.382;2022-10-16T09:58:56;17.20;84.70
43651;DHT22;29247;50.944;5.382;2022-10-16T10:01:31;17.20;84.70
43651;DHT22;29247;50.944;5.382;2022-10-16T10:04:03;17.30;84.80
43651;DHT22;29247;50.944;5.382;2022-10-16T10:06:56;17.30;84.30
43651;DHT22;29247;50.944;5.382;2022-10-16T10:11:51;17.40;83.90
43651;DHT22;29247;50.944;5.382;2022-10-16T10:14:25;17.50;83.80
43651;DHT22;29247;50.944;5.382;2022-10-16T10:19:36;17.50;83.40
43651;DHT22;29247;50.944;5.382;2022-10-16T10:22:22;17.50;83.20
43651;DHT22;29247;50.944;5.382;2022-10-16T10:36:05;17.80;82.60
43651;DHT22;29247;50.944;5.382;2022-10-16T10:38:59;17.90;82.50
43651;DHT22;29247;50.944;5.382;2022-10-16T10:46:48;18.00;81.30
43651;DHT22;29247;50.944;5.382;2022-10-16T10:52:10;18.00;81.10
43651;DHT22;29247;50.944;5.382;2022-10-16T11:06:00;18.10;80.90
43651;DHT22;29247;50.944;5.382;2022-10-16T11:08:39;18.10;80.90
43651;DHT22;29247;50.944;5.382;2022-10-16T11:11:35;18.20;80.60
43651;DHT22;29247;50.944;5.382;2022-10-16T11:16:43;18.30;80.90
43651;DHT22;29247;50.944;5.382;2022-10-16T11:19:35;18.30;80.70
43651;DHT22;29247;50.944;5.382;2022-10-16T11:24:55;18.40;80.20
43651;DHT22;29247;50.944;5.382;2022-10-16T11:28:23;18.50;79.70
43651;DHT22;29247;50.944;5.382;2022-10-16T11:30:31;18.50;79.40
43651;DHT22;29247;50.944;5.382;2022-10-16T11:33:38;18.50;78.90
43651;DHT22;29247;50.944;5.382;2022-10-16T11:49:51;18.50;78.50
43651;DHT22;29247;50.944;5.382;2022-10-16T11:55:13;18.50;78.50
43651;DHT22;29247;50.944;5.382;2022-10-16T11:57:57;18.60;78.60
43651;DHT22;29247;50.944;5.382;2022-10-16T12:00:28;18.60;78.90
43651;DHT22;29247;50.944;5.382;2022-10-16T12:03:03;18.60;78.90
43651;DHT22;29247;50.944;5.382;2022-10-16T12:08:15;18.70;78.40
43651;DHT22;29247;50.944;5.382;2022-10-16T12:10:43;18.70;79.10
43651;DHT22;29247;50.944;5.382;2022-10-16T12:13:36;18.70;78.40
43651;DHT22;29247;50.944;5.382;2022-10-16T12:18:39;18.70;78.60
43651;DHT22;29247;50.944;5.382;2022-10-16T12:21:05;18.80;78.50
43651;DHT22;29247;50.944;5.382;2022-10-16T12:23:48;18.80;78.40
43651;DHT22;29247;50.944;5.382;2022-10-16T12:26:27;18.80;78.10
43651;DHT22;29247;50.944;5.382;2022-10-16T12:28:57;18.80;77.80
43651;DHT22;29247;50.944;5.382;2022-10-16T12:31:38;18.80;77.70
43651;DHT22;29247;50.944;5.382;2022-10-16T12:34:38;18.90;77.80
43651;DHT22;29247;50.944;5.382;2022-10-16T12:37:25;18.90;78.00
43651;DHT22;29247;50.944;5.382;2022-10-16T12:39:54;18.90;78.30
43651;DHT22;29247;50.944;5.382;2022-10-16T12:44:55;19.10;78.60
43651;DHT22;29247;50.944;5.382;2022-10-16T12:47:23;19.10;77.60
43651;DHT22;29247;50.944;5.382;2022-10-16T12:49:53;19.10;77.50
43651;DHT22;29247;50.944;5.382;2022-10-16T12:52:36;19.20;77.10
43651;DHT22;29247;50.944;5.382;2022-10-16T12:55:16;19.20;77.60
43651;DHT22;29247;50.944;5.382;2022-10-16T13:02:57;19.20;76.40
43651;DHT22;29247;50.944;5.382;2022-10-16T13:08:44;19.20;76.20
43651;DHT22;29247;50.944;5.382;2022-10-16T13:16:29;19.20;76.00
43651;DHT22;29247;50.944;5.382;2022-10-16T13:27:07;19.20;76.20
43651;DHT22;29247;50.944;5.382;2022-10-16T13:29:38;19.20;76.20
43651;DHT22;29247;50.944;5.382;2022-10-16T13:32:11;19.20;76.20
43651;DHT22;29247;50.944;5.382;2022-10-16T13:34:48;19.20;76.20
43651;DHT22;29247;50.944;5.382;2022-10-16T13:37:22;19.10;76.20
43651;DHT22;29247;50.944;5.382;2022-10-16T13:39:50;19.20;76.50
43651;DHT22;29247;50.944;5.382;2022-10-16T13:42:28;19.20;76.60
43651;DHT22;29247;50.944;5.382;2022-10-16T13:44:56;19.10;76.60
43651;DHT22;29247;50.944;5.382;2022-10-16T13:47:27;19.10;76.90
43651;DHT22;29247;50.944;5.382;2022-10-16T13:50:14;19.10;77.00
43651;DHT22;29247;50.944;5.382;2022-10-16T13:52:40;19.10;77.10
43651;DHT22;29247;50.944;5.382;2022-10-16T13:55:17;19.10;77.20
43651;DHT22;29247;50.944;5.382;2022-10-16T13:57:44;19.10;77.50
43651;DHT22;29247;50.944;5.382;2022-10-16T14:00:22;19.10;77.30
43651;DHT22;29247;50.944;5.382;2022-10-16T14:02:57;19.20;77.70
43651;DHT22;29247;50.944;5.382;2022-10-16T14:05:24;19.10;77.90
43651;DHT22;29247;50.944;5.382;2022-10-16T14:07:53;19.10;78.00
43651;DHT22;29247;50.944;5.382;2022-10-16T14:10:26;19.10;78.20
43651;DHT22;29247;50.944;5.382;2022-10-16T14:13:03;19.10;78.40
43651;DHT22;29247;50.944;5.382;2022-10-16T14:15:31;19.20;78.50
43651;DHT22;29247;50.944;5.382;2022-10-16T14:17:58;19.20;78.60
43651;DHT22;29247;50.944;5.382;2022-10-16T14:20:32;19.20;78.50
43651;DHT22;29247;50.944;5.382;2022-10-16T14:23:05;19.20;78.20
43651;DHT22;29247;50.944;5.382;2022-10-16T14:25:43;19.20;78.50
43651;DHT22;29247;50.944;5.382;2022-10-16T14:28:23;19.20;77.60
43651;DHT22;29247;50.944;5.382;2022-10-16T14:31:00;19.10;77.60
43651;DHT22;29247;50.944;5.382;2022-10-16T14:36:06;19.10;78.10
43651;DHT22;29247;50.944;5.382;2022-10-16T14:38:41;19.10;78.40
43651;DHT22;29247;50.944;5.382;2022-10-16T14:41:13;19.10;78.70
43651;DHT22;29247;50.944;5.382;2022-10-16T14:43:42;19.10;78.90
43651;DHT22;29247;50.944;5.382;2022-10-16T14:46:16;19.10;79.00
43651;DHT22;29247;50.944;5.382;2022-10-16T14:48:47;19.10;79.10
43651;DHT22;29247;50.944;5.382;2022-10-16T14:51:17;19.10;79.30
43651;DHT22;29247;50.944;5.382;2022-10-16T14:53:43;19.20;79.40
43651;DHT22;29247;50.944;5.382;2022-10-16T14:56:20;19.10;79.30
43651;DHT22;29247;50.944;5.382;2022-10-16T14:58:50;19.20;79.50
43651;DHT22;29247;50.944;5.382;2022-10-16T15:01:18;19.10;79.50
43651;DHT22;29247;50.944;5.382;2022-10-16T15:03:44;19.10;80.40
43651;DHT22;29247;50.944;5.382;2022-10-16T15:06:14;19.10;79.80
43651;DHT22;29247;50.944;5.382;2022-10-16T15:08:40;19.10;80.10
43651;DHT22;29247;50.944;5.382;2022-10-16T15:11:13;19.10;80.30
43651;DHT22;29247;50.944;5.382;2022-10-16T15:13:39;19.10;80.50
43651;DHT22;29247;50.944;5.382;2022-10-16T15:16:07;19.10;80.40
43651;DHT22;29247;50.944;5.382;2022-10-16T15:18:33;19.10;80.50
43651;DHT22;29247;50.944;5.382;2022-10-16T15:21:02;19.10;80.60
43651;DHT22;29247;50.944;5.382;2022-10-16T15:23:28;19.00;80.70
43651;DHT22;29247;50.944;5.382;2022-10-16T15:25:56;19.00;80.80
43651;DHT22;29247;50.944;5.382;2022-10-16T15:28:25;19.00;80.90
43651;DHT22;29247;50.944;5.382;2022-10-16T15:30:53;19.00;81.10
43651;DHT22;29247;50.944;5.382;2022-10-16T15:33:25;19.10;81.30
43651;DHT22;29247;50.944;5.382;2022-10-16T15:35:58;19.00;81.30
43651;DHT22;29247;50.944;5.382;2022-10-16T15:38:24;19.00;81.40
43651;DHT22;29247;50.944;5.382;2022-10-16T15:40:51;19.00;81.30
43651;DHT22;29247;50.944;5.382;2022-10-16T15:43:17;19.00;81.40
43651;DHT22;29247;50.944;5.382;2022-10-16T15:45:44;19.00;81.40
43651;DHT22;29247;50.944;5.382;2022-10-16T15:48:13;19.00;81.40
43651;DHT22;29247;50.944;5.382;2022-10-16T15:50:42;18.90;81.60
43651;DHT22;29247;50.944;5.382;2022-10-16T15:53:10;18.90;81.60
43651;DHT22;29247;50.944;5.382;2022-10-16T15:55:35;18.90;81.70
43651;DHT22;29247;50.944;5.382;2022-10-16T15:58:03;18.90;81.70
43651;DHT22;29247;50.944;5.382;2022-10-16T16:00:29;18.90;81.70
43651;DHT22;29247;50.944;5.382;2022-10-16T16:02:58;18.80;81.60
43651;DHT22;29247;50.944;5.382;2022-10-16T16:05:26;18.80;81.60
43651;DHT22;29247;50.944;5.382;2022-10-16T16:07:56;18.80;81.60
43651;DHT22;29247;50.944;5.382;2022-10-16T16:10:24;18.70;81.60
43651;DHT22;29247;50.944;5.382;2022-10-16T16:12:53;18.70;81.60
43651;DHT22;29247;50.944;5.382;2022-10-16T16:15:22;18.60;81.80
43651;DHT22;29247;50.944;5.382;2022-10-16T16:17:53;18.60;82.00
43651;DHT22;29247;50.944;5.382;2022-10-16T16:20:19;18.60;82.10
43651;DHT22;29247;50.944;5.382;2022-10-16T16:22:47;18.60;82.30
43651;DHT22;29247;50.944;5.382;2022-10-16T16:25:13;18.60;82.40
43651;DHT22;29247;50.944;5.382;2022-10-16T16:27:42;18.60;82.40
43651;DHT22;29247;50.944;5.382;2022-10-16T16:30:11;18.50;82.50
43651;DHT22;29247;50.944;5.382;2022-10-16T16:32:37;18.50;82.50
43651;DHT22;29247;50.944;5.382;2022-10-16T16:35:03;18.50;82.60
43651;DHT22;29247;50.944;5.382;2022-10-16T16:37:32;18.50;82.70
43651;DHT22;29247;50.944;5.382;2022-10-16T16:39:58;18.40;82.80
43651;DHT22;29247;50.944;5.382;2022-10-16T16:42:25;18.40;82.80
43651;DHT22;29247;50.944;5.382;2022-10-16T16:44:54;18.40;82.80
43651;DHT22;29247;50.944;5.382;2022-10-16T16:47:19;18.40;82.90
43651;DHT22;29247;50.944;5.382;2022-10-16T16:49:46;18.30;82.90
43651;DHT22;29247;50.944;5.382;2022-10-16T16:52:15;18.30;83.00
43651;DHT22;29247;50.944;5.382;2022-10-16T16:54:44;18.30;83.10
43651;DHT22;29247;50.944;5.382;2022-10-16T16:57:19;18.20;83.10
43651;DHT22;29247;50.944;5.382;2022-10-16T16:59:45;18.20;83.20
43651;DHT22;29247;50.944;5.382;2022-10-16T17:02:11;18.20;83.20
43651;DHT22;29247;50.944;5.382;2022-10-16T17:04:36;18.20;83.20
43651;DHT22;29247;50.944;5.382;2022-10-16T17:07:02;18.10;83.20
43651;DHT22;29247;50.944;5.382;2022-10-16T17:09:27;18.10;83.30
43651;DHT22;29247;50.944;5.382;2022-10-16T17:11:53;18.10;83.30
43651;DHT22;29247;50.944;5.382;2022-10-16T17:14:22;18.00;83.40
43651;DHT22;29247;50.944;5.382;2022-10-16T17:16:47;18.00;83.40
43651;DHT22;29247;50.944;5.382;2022-10-16T17:19:16;18.00;83.40
43651;DHT22;29247;50.944;5.382;2022-10-16T17:21:43;18.00;83.60
43651;DHT22;29247;50.944;5.382;2022-10-16T17:24:14;18.00;83.60
43651;DHT22;29247;50.944;5.382;2022-10-16T17:26:46;17.90;83.60
43651;DHT22;29247;50.944;5.382;2022-10-16T17:29:14;17.90;83.70
43651;DHT22;29247;50.944;5.382;2022-10-16T17:31:40;17.90;83.70
43651;DHT22;29247;50.944;5.382;2022-10-16T17:34:08;17.90;83.70
43651;DHT22;29247;50.944;5.382;2022-10-16T17:36:37;17.90;83.80
43651;DHT22;29247;50.944;5.382;2022-10-16T17:39:11;17.80;83.80
43651;DHT22;29247;50.944;5.382;2022-10-16T17:41:39;17.80;84.00
43651;DHT22;29247;50.944;5.382;2022-10-16T17:44:06;17.80;84.00
43651;DHT22;29247;50.944;5.382;2022-10-16T17:46:35;17.80;84.20
43651;DHT22;29247;50.944;5.382;2022-10-16T17:49:03;17.80;84.20
43651;DHT22;29247;50.944;5.382;2022-10-16T17:51:31;17.80;84.20
43651;DHT22;29247;50.944;5.382;2022-10-16T17:54:01;17.80;84.40
43651;DHT22;29247;50.944;5.382;2022-10-16T17:56:28;17.80;84.60
43651;DHT22;29247;50.944;5.382;2022-10-16T17:58:56;17.80;84.70
43651;DHT22;29247;50.944;5.382;2022-10-16T18:01:29;17.80;84.90
43651;DHT22;29247;50.944;5.382;2022-10-16T18:04:01;17.80;85.10
43651;DHT22;29247;50.944;5.382;2022-10-16T18:06:27;17.80;85.30
43651;DHT22;29247;50.944;5.382;2022-10-16T18:08:55;17.80;85.40
43651;DHT22;29247;50.944;5.382;2022-10-16T18:11:21;17.70;85.50
43651;DHT22;29247;50.944;5.382;2022-10-16T18:13:54;17.70;85.80
43651;DHT22;29247;50.944;5.382;2022-10-16T18:16:23;17.70;86.10